LXGB Airport Information

Runway Information
Runway 09 Length 6000 ft width 150 ft
Elevation 10 ft Threshold 302 ft Heading 88
Runway 27 Length 6000 ft Width 150 ft
Elevation 11 ft Threshold 368 ft Heading 268
Airport Frequencies
Type A/D Name APP Frequency 122.8 MHZ
Type OPS Name GIB TALKDO Frequency 130.4 MHZ
Type TWR Name TWR Frequency 131.2 MHZ
Airport Navaids
Type TACAN Name Gibraltar Frequency 113600 KHZ
Airport Weather Information & NOTAM
ADDS - METARS form results

(2032 UTC 23 October 2018)
Data provider http://aviationweather.gov/metar/data/
 
Forecast for: LXGB (GIBRALTAR (CIV/M, GI)
Text: TAF LXGB 231618Z 2318/2322 05013KT 8000 HZ FEW012
Forecast period: 1800 to 2200 UTC 23 October 2018
Forecast type: FROM: standard forecast or significant change
Winds: from the NE (50 degrees) at 15 MPH (13 knots; 6.7 m/s)
Visibility: 5 miles (8 km)
Ceiling: at least 12,000 feet AGL
Clouds: few clouds at 1200 feet AGL
Weather: HZ  (haze)
Text: PROB30
Forecast period: 1800 to 2100 UTC 23 October 2018
Forecast type: TEMPORARY: The following changes expected for less than half the time period
Visibility: 4 miles (7 km)
Ceiling: at least 12,000 feet AGL
Clouds: scattered clouds at 2000 feet AGL
Weather: SHRA  (rain showers)